createdAt,value
2019-02-24T00:01:02.312Z,16.70
2019-02-24T00:03:33.126Z,18.80
2019-02-24T00:06:07.049Z,16.90
2019-02-24T00:08:38.847Z,17.97
2019-02-24T00:11:11.040Z,16.50
2019-02-24T00:13:43.316Z,18.50
2019-02-24T00:16:13.976Z,18.40
2019-02-24T00:18:46.772Z,18.77
2019-02-24T00:21:17.329Z,18.47
2019-02-24T00:23:47.785Z,17.27
2019-02-24T00:26:19.142Z,17.10
2019-02-24T00:28:49.669Z,18.07
2019-02-24T00:31:21.747Z,18.37
2019-02-24T00:33:53.166Z,17.27
2019-02-24T00:36:26.464Z,19.20
2019-02-24T00:38:56.965Z,17.90
2019-02-24T00:41:29.368Z,18.00
2019-02-24T00:43:59.847Z,18.20
2019-02-24T00:46:30.230Z,18.47
2019-02-24T00:49:00.967Z,20.60
2019-02-24T00:51:34.698Z,17.80
2019-02-24T00:54:07.304Z,20.10
2019-02-24T00:56:39.086Z,20.17
2019-02-24T00:59:10.407Z,22.47
2019-02-24T01:01:41.024Z,20.87
2019-02-24T01:04:13.285Z,21.10
2019-02-24T01:06:43.897Z,19.33
2019-02-24T01:09:14.552Z,19.97
2019-02-24T01:11:46.415Z,20.33
2019-02-24T01:14:16.950Z,20.67
2019-02-24T01:16:49.326Z,20.77
2019-02-24T01:19:19.975Z,20.27
2019-02-24T01:21:51.924Z,20.33
2019-02-24T01:24:22.760Z,20.90
2019-02-24T01:26:53.688Z,19.37
2019-02-24T01:29:24.461Z,20.03
2019-02-24T01:31:55.226Z,20.20
2019-02-24T01:34:25.814Z,20.20
2019-02-24T01:36:56.368Z,20.60
2019-02-24T01:39:29.131Z,19.67
2019-02-24T01:41:59.752Z,20.63
2019-02-24T01:44:31.498Z,19.50
2019-02-24T01:47:01.916Z,20.93
2019-02-24T01:49:34.238Z,19.80
2019-02-24T01:52:05.096Z,20.63
2019-02-24T01:54:36.390Z,20.03
2019-02-24T01:57:10.004Z,19.77
2019-02-24T01:59:43.332Z,21.10
2019-02-24T02:02:14.727Z,19.77
2019-02-24T02:04:46.032Z,21.73
2019-02-24T02:07:17.605Z,19.80
2019-02-24T02:09:48.096Z,20.03
2019-02-24T02:12:22.119Z,21.43
2019-02-24T02:14:54.306Z,20.50
2019-02-24T02:17:25.164Z,21.30
2019-02-24T02:19:55.577Z,21.63
2019-02-24T02:22:26.256Z,20.60
2019-02-24T02:24:57.090Z,21.10
2019-02-24T02:27:28.396Z,21.30
2019-02-24T02:30:01.504Z,21.67
2019-02-24T02:32:31.824Z,21.80
2019-02-24T02:35:03.921Z,25.17
2019-02-24T02:37:36.198Z,23.17
2019-02-24T02:40:06.874Z,23.87
2019-02-24T02:42:37.431Z,25.10
2019-02-24T02:45:10.215Z,22.77
2019-02-24T02:47:41.568Z,24.40
2019-02-24T02:50:12.809Z,22.00
2019-02-24T02:52:43.310Z,23.30
2019-02-24T02:55:13.728Z,22.23
2019-02-24T02:57:44.209Z,23.63
2019-02-24T03:00:32.145Z,22.20
2019-02-24T03:03:02.575Z,22.20
2019-02-24T03:05:34.743Z,23.90
2019-02-24T03:08:12.950Z,23.03
2019-02-24T03:10:43.389Z,23.80
2019-02-24T03:13:13.662Z,23.50
2019-02-24T03:15:44.041Z,22.63
2019-02-24T03:18:14.572Z,22.37
2019-02-24T03:20:45.208Z,21.97
2019-02-24T03:23:17.354Z,23.53
2019-02-24T03:25:47.814Z,23.80
2019-02-24T03:28:19.877Z,22.30
2019-02-24T03:30:52.983Z,24.00
2019-02-24T03:33:25.035Z,23.50
2019-02-24T03:35:56.493Z,22.40
2019-02-24T03:38:28.397Z,22.97
2019-02-24T03:40:58.603Z,21.87
2019-02-24T03:43:29.048Z,22.10
2019-02-24T03:46:00.367Z,22.00
2019-02-24T03:48:31.845Z,24.00
2019-02-24T03:51:02.164Z,23.10
2019-02-24T03:53:33.514Z,23.30
2019-02-24T03:56:04.865Z,22.53
2019-02-24T03:58:35.386Z,21.67
2019-02-24T04:01:05.812Z,21.90
2019-02-24T04:03:36.139Z,22.77
2019-02-24T04:06:08.318Z,21.77
2019-02-24T04:08:40.791Z,21.77
2019-02-24T04:11:12.044Z,21.57
2019-02-24T04:13:43.288Z,19.83
2019-02-24T04:16:15.409Z,20.93
2019-02-24T04:18:45.694Z,20.13
2019-02-24T04:21:15.968Z,18.90
2019-02-24T04:23:47.591Z,19.80
2019-02-24T04:26:18.108Z,20.30
2019-02-24T04:28:50.843Z,20.00
2019-02-24T04:31:21.196Z,20.07
2019-02-24T04:33:52.320Z,19.50
2019-02-24T04:36:23.823Z,20.03
2019-02-24T04:38:55.737Z,21.47
2019-02-24T04:41:27.847Z,20.30
2019-02-24T04:43:58.218Z,19.80
2019-02-24T04:46:29.736Z,21.80
2019-02-24T04:48:59.981Z,19.80
2019-02-24T04:51:31.699Z,20.10
2019-02-24T04:54:03.017Z,18.37
2019-02-24T04:56:33.219Z,20.03
2019-02-24T04:59:03.672Z,20.37
2019-02-24T05:01:34.854Z,21.37
2019-02-24T05:04:06.966Z,19.80
2019-02-24T05:06:37.378Z,17.93
2019-02-24T05:09:09.791Z,19.50
2019-02-24T05:11:40.079Z,19.60
2019-02-24T05:14:10.520Z,20.87
2019-02-24T05:16:42.221Z,22.10
2019-02-24T05:19:14.341Z,19.80
2019-02-24T05:21:45.699Z,20.40
2019-02-24T05:24:16.025Z,19.97
2019-02-24T05:26:47.276Z,19.03
2019-02-24T05:29:17.905Z,19.70
2019-02-24T05:31:48.443Z,19.23
2019-02-24T05:34:19.212Z,21.00
2019-02-24T05:36:51.449Z,19.70
2019-02-24T05:39:23.772Z,20.00
2019-02-24T05:41:54.050Z,19.30
2019-02-24T05:44:24.396Z,21.73
2019-02-24T05:46:54.772Z,19.90
2019-02-24T05:49:26.774Z,20.40
2019-02-24T05:51:58.663Z,18.23
2019-02-24T05:54:28.849Z,20.00
2019-02-24T05:56:59.279Z,19.40
2019-02-24T05:59:31.443Z,21.07
2019-02-24T06:02:01.602Z,19.20
2019-02-24T06:04:32.022Z,20.07
2019-02-24T06:07:03.475Z,21.27
2019-02-24T06:09:33.834Z,19.90
2019-02-24T06:12:04.442Z,22.70
2019-02-24T06:14:35.279Z,19.77
2019-02-24T06:17:06.536Z,20.40
2019-02-24T06:19:38.636Z,21.33
2019-02-24T06:22:09.070Z,20.60
2019-02-24T06:24:39.491Z,21.20
2019-02-24T06:27:10.100Z,21.57
2019-02-24T06:29:40.648Z,20.07
2019-02-24T06:32:11.134Z,22.07
2019-02-24T06:34:42.073Z,21.67
2019-02-24T06:37:14.447Z,22.00
2019-02-24T06:39:46.748Z,21.53
2019-02-24T06:42:18.215Z,20.10
2019-02-24T06:44:49.045Z,20.37
2019-02-24T06:47:19.580Z,20.47
2019-02-24T06:49:49.839Z,21.07
2019-02-24T06:52:23.562Z,19.70
2019-02-24T06:54:54.743Z,17.30
2019-02-24T06:57:25.976Z,17.57
2019-02-24T06:59:57.145Z,19.03
2019-02-24T07:02:27.695Z,16.80
2019-02-24T07:04:57.786Z,17.70
2019-02-24T07:07:28.234Z,17.20
2019-02-24T07:09:58.417Z,16.60
2019-02-24T07:12:28.611Z,16.70
2019-02-24T07:14:58.838Z,16.50
2019-02-24T07:17:29.454Z,15.53
2019-02-24T07:20:00.889Z,15.77
2019-02-24T07:22:32.211Z,15.87
2019-02-24T07:25:02.610Z,14.63
2019-02-24T07:27:34.764Z,15.10
2019-02-24T07:30:05.885Z,14.70
2019-02-24T07:32:36.634Z,14.97
2019-02-24T07:35:07.261Z,15.37
2019-02-24T07:37:38.326Z,15.07
2019-02-24T07:40:09.674Z,14.33
2019-02-24T07:42:41.260Z,13.97
2019-02-24T07:45:13.290Z,14.13
2019-02-24T07:47:43.715Z,14.27
2019-02-24T07:50:14.989Z,12.47
2019-02-24T07:52:48.277Z,12.37
2019-02-24T07:55:19.125Z,11.87
2019-02-24T07:57:50.577Z,12.60
2019-02-24T08:00:20.708Z,11.57
2019-02-24T08:02:51.299Z,11.60
2019-02-24T08:05:21.512Z,11.30
2019-02-24T08:07:52.168Z,12.10
2019-02-24T08:10:23.825Z,11.53
2019-02-24T08:12:54.664Z,12.13
2019-02-24T08:15:26.353Z,10.60
2019-02-24T08:17:56.638Z,9.73
2019-02-24T08:20:28.710Z,8.97
2019-02-24T08:23:00.203Z,8.63
2019-02-24T08:25:30.855Z,7.47
2019-02-24T08:28:02.498Z,8.03
2019-02-24T08:30:41.212Z,8.10
2019-02-24T08:33:05.611Z,7.20
2019-02-24T08:35:37.379Z,6.67
2019-02-24T08:38:09.646Z,7.67
2019-02-24T08:40:39.972Z,8.07
2019-02-24T08:43:10.304Z,7.23
2019-02-24T08:45:40.629Z,7.30
2019-02-24T08:48:11.164Z,7.57
2019-02-24T08:50:41.491Z,6.80
2019-02-24T08:53:12.047Z,7.27
2019-02-24T08:55:42.557Z,7.60
2019-02-24T08:58:14.147Z,8.33
2019-02-24T09:00:51.041Z,7.43
2019-02-24T09:03:20.707Z,7.10
2019-02-24T09:05:51.442Z,8.07
2019-02-24T09:08:22.938Z,8.47
2019-02-24T09:10:54.557Z,8.30
2019-02-24T09:13:24.894Z,8.67
2019-02-24T09:15:56.298Z,7.47
2019-02-24T09:18:27.691Z,8.10
2019-02-24T09:20:59.034Z,8.00
2019-02-24T09:23:29.472Z,8.13
2019-02-24T09:25:59.762Z,7.10
2019-02-24T09:28:32.120Z,7.50
2019-02-24T09:31:03.654Z,7.17
2019-02-24T09:33:36.211Z,8.13
2019-02-24T09:36:06.662Z,7.67
2019-02-24T09:38:37.173Z,6.90
2019-02-24T09:41:09.553Z,7.53
2019-02-24T09:43:39.797Z,7.53
2019-02-24T09:46:13.281Z,8.10
2019-02-24T09:48:43.609Z,8.03
2019-02-24T09:51:14.244Z,8.10
2019-02-24T09:53:44.572Z,7.67
2019-02-24T09:56:16.412Z,8.27
2019-02-24T09:58:46.456Z,7.90
2019-02-24T10:01:16.898Z,7.30
2019-02-24T10:03:47.333Z,8.20
2019-02-24T10:06:20.718Z,8.40
2019-02-24T10:08:53.397Z,9.33
2019-02-24T10:11:23.833Z,8.33
2019-02-24T10:13:54.363Z,8.07
2019-02-24T10:16:24.793Z,9.20
2019-02-24T10:18:55.159Z,7.93
2019-02-24T10:21:25.756Z,8.97
2019-02-24T10:23:56.495Z,8.47
2019-02-24T10:26:28.039Z,8.27
2019-02-24T10:28:58.569Z,7.83
2019-02-24T10:31:30.961Z,7.80
2019-02-24T10:34:02.746Z,8.60
2019-02-24T10:36:34.116Z,8.50
2019-02-24T10:39:05.223Z,8.20
2019-02-24T10:41:35.651Z,8.70
2019-02-24T10:44:06.902Z,8.37
2019-02-24T10:46:38.569Z,8.60
2019-02-24T10:49:09.903Z,7.90
2019-02-24T10:51:40.453Z,8.20
2019-02-24T10:54:11.792Z,8.30
2019-02-24T10:56:43.021Z,8.40
2019-02-24T10:59:16.923Z,7.80
2019-02-24T11:01:47.957Z,7.67
2019-02-24T11:04:19.865Z,7.40
2019-02-24T11:06:50.294Z,7.20
2019-02-24T11:09:23.693Z,8.50
2019-02-24T11:11:54.248Z,8.07
2019-02-24T11:14:24.512Z,7.60
2019-02-24T11:16:54.800Z,7.17
2019-02-24T11:19:26.232Z,6.63
2019-02-24T11:21:57.031Z,7.83
2019-02-24T11:24:27.339Z,8.80
2019-02-24T11:26:58.603Z,8.13
2019-02-24T11:29:29.345Z,8.60
2019-02-24T11:32:01.447Z,7.70
2019-02-24T11:34:31.908Z,7.90
2019-02-24T11:37:03.490Z,9.03
2019-02-24T11:39:33.879Z,8.30
2019-02-24T11:42:04.002Z,8.57
2019-02-24T11:44:35.075Z,7.60
2019-02-24T11:47:05.681Z,8.30
2019-02-24T11:49:37.270Z,8.33
2019-02-24T11:52:07.489Z,8.90
2019-02-24T11:54:37.815Z,6.80
2019-02-24T11:57:07.984Z,19.50
2019-02-24T11:59:41.009Z,9.00
2019-02-24T12:02:12.441Z,7.70
2019-02-24T12:04:44.097Z,7.07
2019-02-24T12:07:14.548Z,7.10
2019-02-24T12:09:44.936Z,6.60
2019-02-24T12:12:15.113Z,6.70
2019-02-24T12:14:45.403Z,7.60
2019-02-24T12:17:15.849Z,7.27
2019-02-24T12:19:46.298Z,7.20
2019-02-24T12:22:20.532Z,7.80
2019-02-24T12:24:54.025Z,7.47
2019-02-24T12:27:24.524Z,8.23
2019-02-24T12:29:57.645Z,7.17
2019-02-24T12:32:28.201Z,6.77
2019-02-24T12:34:58.704Z,7.80
2019-02-24T12:37:29.161Z,7.80
2019-02-24T12:39:59.657Z,7.40
2019-02-24T12:42:30.375Z,7.13
2019-02-24T12:45:01.775Z,7.13
2019-02-24T12:47:33.729Z,6.93
2019-02-24T12:50:05.914Z,6.93
2019-02-24T12:52:39.598Z,7.47
2019-02-24T12:55:13.231Z,7.10
2019-02-24T12:57:43.689Z,8.40
2019-02-24T13:00:16.895Z,7.57
2019-02-24T13:02:48.695Z,7.80
2019-02-24T13:05:19.228Z,7.87
2019-02-24T13:07:50.703Z,7.43
2019-02-24T13:10:23.158Z,7.03
2019-02-24T13:12:55.153Z,7.87
2019-02-24T13:15:27.498Z,7.73
2019-02-24T13:18:00.591Z,8.10
2019-02-24T13:20:32.864Z,7.10
2019-02-24T13:23:05.341Z,7.80
2019-02-24T13:25:35.792Z,6.80
2019-02-24T13:28:06.258Z,6.73
2019-02-24T13:30:36.520Z,5.93
2019-02-24T13:33:07.573Z,5.73
2019-02-24T13:35:40.741Z,6.07
2019-02-24T13:38:12.586Z,4.90
2019-02-24T13:40:48.790Z,5.57
2019-02-24T13:43:20.173Z,6.17
2019-02-24T13:45:50.473Z,5.53
2019-02-24T13:48:20.599Z,6.20
2019-02-24T13:50:53.904Z,6.97
2019-02-24T13:53:25.628Z,6.73
2019-02-24T13:55:56.445Z,7.40
2019-02-24T13:58:26.831Z,7.50
2019-02-24T14:00:57.506Z,6.80
2019-02-24T14:03:28.186Z,6.43
2019-02-24T14:05:58.845Z,6.57
2019-02-24T14:08:30.495Z,7.80
2019-02-24T14:11:00.839Z,7.87
2019-02-24T14:13:32.497Z,6.77
2019-02-24T14:16:04.042Z,6.63
2019-02-24T14:18:34.401Z,6.17
2019-02-24T14:21:04.558Z,6.67
2019-02-24T14:23:34.819Z,6.70
2019-02-24T14:26:05.419Z,6.33
2019-02-24T14:28:36.830Z,6.60
2019-02-24T14:31:07.631Z,7.67
2019-02-24T14:33:37.719Z,6.60
2019-02-24T14:36:09.397Z,6.20
2019-02-24T14:38:40.149Z,6.70
2019-02-24T14:41:11.539Z,7.37
2019-02-24T14:43:41.904Z,6.57
2019-02-24T14:46:12.277Z,6.30
2019-02-24T14:48:44.712Z,6.83
2019-02-24T14:51:16.107Z,5.93
2019-02-24T14:53:46.433Z,5.60
2019-02-24T14:56:16.863Z,6.40
2019-02-24T14:58:48.419Z,5.97
2019-02-24T15:01:19.906Z,5.50
2019-02-24T15:03:50.618Z,6.00
2019-02-24T15:06:21.298Z,5.60
2019-02-24T15:08:51.823Z,5.40
2019-02-24T15:11:23.143Z,6.00
2019-02-24T15:13:54.293Z,6.00
2019-02-24T15:16:24.901Z,5.90
2019-02-24T15:18:55.759Z,5.30
2019-02-24T15:21:26.097Z,6.30
2019-02-24T15:23:58.089Z,6.30
2019-02-24T15:26:29.502Z,6.43
2019-02-24T15:29:00.958Z,7.03
2019-02-24T15:31:31.414Z,6.60
2019-02-24T15:34:02.917Z,6.50
2019-02-24T15:36:35.306Z,6.33
2019-02-24T15:39:07.747Z,6.77
2019-02-24T15:41:37.885Z,6.30
2019-02-24T15:44:10.119Z,6.40
2019-02-24T15:46:41.753Z,7.03
2019-02-24T15:49:12.056Z,6.90
2019-02-24T15:51:42.534Z,7.03
2019-02-24T15:54:13.100Z,7.33
2019-02-24T15:56:43.373Z,6.67
2019-02-24T15:59:16.014Z,6.87
2019-02-24T16:01:49.296Z,8.07
2019-02-24T16:04:21.964Z,7.30
2019-02-24T16:06:52.326Z,8.00
2019-02-24T16:09:25.916Z,6.67
2019-02-24T16:11:56.486Z,6.77
2019-02-24T16:14:28.780Z,7.57
2019-02-24T16:16:59.390Z,7.57
2019-02-24T16:19:30.667Z,8.00
2019-02-24T16:22:01.606Z,7.00
2019-02-24T16:24:32.066Z,7.17
2019-02-24T16:27:02.576Z,7.43
2019-02-24T16:29:33.995Z,7.20
2019-02-24T16:32:06.371Z,7.70
2019-02-24T16:34:38.029Z,8.50
2019-02-24T16:37:11.942Z,7.80
2019-02-24T16:39:45.020Z,8.07
2019-02-24T16:42:15.641Z,7.80
2019-02-24T16:44:47.963Z,8.03
2019-02-24T16:47:21.055Z,7.80
2019-02-24T16:49:51.770Z,8.20
2019-02-24T16:52:21.999Z,7.20
2019-02-24T16:54:55.326Z,8.20
2019-02-24T16:57:28.003Z,7.63
2019-02-24T16:59:58.869Z,8.20
2019-02-24T17:02:32.972Z,7.40
2019-02-24T17:05:04.160Z,17.47
2019-02-24T17:07:35.196Z,32.73
2019-02-24T17:10:06.480Z,21.23
2019-02-24T17:12:37.848Z,16.33
2019-02-24T17:15:11.551Z,10.77
2019-02-24T17:17:43.870Z,8.07
2019-02-24T17:20:15.824Z,9.47
2019-02-24T17:22:48.681Z,11.33
2019-02-24T17:25:19.219Z,8.67
2019-02-24T17:27:50.886Z,8.80
2019-02-24T17:30:23.702Z,9.30
2019-02-24T17:32:54.483Z,16.93
2019-02-24T17:35:26.492Z,12.03
2019-02-24T17:37:59.259Z,12.03
2019-02-24T17:40:29.786Z,11.60
2019-02-24T17:43:02.796Z,11.10
2019-02-24T17:45:35.478Z,10.70
2019-02-24T17:48:07.130Z,12.10
2019-02-24T17:50:39.403Z,10.77
2019-02-24T17:53:11.467Z,8.93
2019-02-24T17:55:43.634Z,8.73
2019-02-24T17:58:14.057Z,8.97
2019-02-24T18:00:50.015Z,10.63
2019-02-24T18:03:20.444Z,11.13
2019-02-24T18:05:52.438Z,11.40
2019-02-24T18:08:28.287Z,11.47
2019-02-24T18:10:56.231Z,12.07
2019-02-24T18:13:26.552Z,10.87
2019-02-24T18:16:00.003Z,11.50
2019-02-24T18:18:30.960Z,8.93
2019-02-24T18:21:01.933Z,9.00
2019-02-24T18:23:33.771Z,8.57
2019-02-24T18:26:08.409Z,9.13
2019-02-24T18:28:44.994Z,9.03
2019-02-24T18:31:16.883Z,8.07
2019-02-24T18:33:48.971Z,9.90
2019-02-24T18:36:22.142Z,9.00
2019-02-24T18:38:53.420Z,11.30
2019-02-24T18:41:23.843Z,13.87
2019-02-24T18:43:58.441Z,10.80
2019-02-24T18:46:28.866Z,11.30
2019-02-24T18:49:00.310Z,11.33
2019-02-24T18:51:32.536Z,11.30
2019-02-24T18:54:03.953Z,11.00
2019-02-24T18:56:34.593Z,11.17
2019-02-24T18:59:05.219Z,12.23
2019-02-24T19:01:36.344Z,13.13
2019-02-24T19:04:07.416Z,12.77
2019-02-24T19:06:39.322Z,12.80
2019-02-24T19:09:10.542Z,11.90
2019-02-24T19:11:41.682Z,12.97
2019-02-24T19:14:14.767Z,12.50
2019-02-24T19:16:45.078Z,12.13
2019-02-24T19:19:25.175Z,14.70
2019-02-24T19:21:50.461Z,13.27
2019-02-24T19:24:21.012Z,14.70
2019-02-24T19:26:53.880Z,12.97
2019-02-24T19:29:24.676Z,13.83
2019-02-24T19:31:56.499Z,15.23
2019-02-24T19:34:27.310Z,13.67
2019-02-24T19:36:58.956Z,15.33
2019-02-24T19:39:31.175Z,13.80
2019-02-24T19:42:01.748Z,14.57
2019-02-24T19:44:34.218Z,14.80
2019-02-24T19:47:04.648Z,15.17
2019-02-24T19:49:35.137Z,13.47
2019-02-24T19:52:07.009Z,13.27
2019-02-24T19:54:40.316Z,11.50
2019-02-24T19:57:12.476Z,13.30
2019-02-24T19:59:45.316Z,13.30
2019-02-24T20:02:16.814Z,12.13
2019-02-24T20:04:47.675Z,12.23
2019-02-24T20:07:19.582Z,14.17
2019-02-24T20:09:50.092Z,16.90
2019-02-24T20:12:20.156Z,21.40
2019-02-24T20:14:51.133Z,16.90
2019-02-24T20:17:21.570Z,17.37
2019-02-24T20:19:52.027Z,19.40
2019-02-24T20:22:22.485Z,18.03
2019-02-24T20:24:53.050Z,19.80
2019-02-24T20:27:23.558Z,18.37
2019-02-24T20:29:55.125Z,17.80
2019-02-24T20:32:26.184Z,17.33
2019-02-24T20:34:56.903Z,16.53
2019-02-24T20:37:27.363Z,16.50
2019-02-24T20:39:59.602Z,18.47
2019-02-24T20:42:30.679Z,17.10
2019-02-24T20:45:03.240Z,16.57
2019-02-24T20:47:34.689Z,16.20
2019-02-24T20:50:05.939Z,16.47
2019-02-24T20:52:36.703Z,18.90
2019-02-24T20:55:09.864Z,18.70
2019-02-24T20:57:40.904Z,17.93
2019-02-24T21:00:23.108Z,19.23
2019-02-24T21:02:54.307Z,17.97
2019-02-24T21:05:24.849Z,17.67
2019-02-24T21:07:55.678Z,19.17
2019-02-24T21:10:26.093Z,18.27
2019-02-24T21:12:56.581Z,19.00
2019-02-24T21:15:27.293Z,17.67
2019-02-24T21:17:57.695Z,20.23
2019-02-24T21:20:30.255Z,16.80
2019-02-24T21:23:01.093Z,19.00
2019-02-24T21:25:31.956Z,23.17
2019-02-24T21:28:03.952Z,22.80
2019-02-24T21:30:35.334Z,27.83
2019-02-24T21:33:08.027Z,29.90
2019-02-24T21:35:38.270Z,24.27
2019-02-24T21:38:09.064Z,22.90
2019-02-24T21:40:40.310Z,21.90
2019-02-24T21:43:11.082Z,21.97
2019-02-24T21:45:41.846Z,18.87
2019-02-24T21:48:13.175Z,20.73
2019-02-24T21:50:43.955Z,19.60
2019-02-24T21:53:14.444Z,17.40
2019-02-24T21:55:46.088Z,18.77
2019-02-24T21:58:16.302Z,17.10
2019-02-24T22:00:46.812Z,18.23
2019-02-24T22:03:19.370Z,17.87
2019-02-24T22:05:50.198Z,18.00
2019-02-24T22:08:20.507Z,17.43
2019-02-24T22:10:50.970Z,18.67
2019-02-24T22:13:21.431Z,19.13
2019-02-24T22:15:52.221Z,18.90
2019-02-24T22:18:24.703Z,18.27
2019-02-24T22:20:56.132Z,15.93
2019-02-24T22:23:27.665Z,15.80
2019-02-24T22:26:00.946Z,16.03
2019-02-24T22:28:31.212Z,16.30
2019-02-24T22:31:02.871Z,16.77
2019-02-24T22:33:33.288Z,16.37
2019-02-24T22:36:06.297Z,16.50
2019-02-24T22:38:36.769Z,16.70
2019-02-24T22:41:08.902Z,18.27
2019-02-24T22:43:40.862Z,15.70
2019-02-24T22:46:12.418Z,14.90
2019-02-24T22:48:42.951Z,15.90
2019-02-24T22:51:22.595Z,16.10
2019-02-24T22:53:54.875Z,14.40
2019-02-24T22:56:26.422Z,12.90
2019-02-24T22:58:57.532Z,13.70
2019-02-24T23:01:31.885Z,13.47
2019-02-24T23:04:11.604Z,13.67
2019-02-24T23:06:41.960Z,15.13
2019-02-24T23:09:16.523Z,13.87
2019-02-24T23:11:47.326Z,13.67
2019-02-24T23:14:19.598Z,12.97
2019-02-24T23:16:49.975Z,14.17
2019-02-24T23:19:21.579Z,15.13
2019-02-24T23:21:53.954Z,14.47
2019-02-24T23:24:26.926Z,14.37
2019-02-24T23:26:57.181Z,14.40
2019-02-24T23:29:29.336Z,14.00
2019-02-24T23:32:01.205Z,14.23
2019-02-24T23:34:31.474Z,12.97
2019-02-24T23:37:02.476Z,14.20
2019-02-24T23:39:34.380Z,13.67
2019-02-24T23:42:05.920Z,13.27
2019-02-24T23:44:37.055Z,13.30
2019-02-24T23:47:07.823Z,14.63
2019-02-24T23:49:38.211Z,14.27
2019-02-24T23:52:08.745Z,14.43
2019-02-24T23:54:41.364Z,14.30
2019-02-24T23:57:12.779Z,14.83
2019-02-24T23:59:45.770Z,15.70
